PWSweather.com
Personal Weather Stations
Station Observations
WATERF01
WaterfordIE

WaterfordIE

Lat: 52.2412507, Lon: -7.1414691

Elevation: 65

Station Type: Davis Vantage Vue

www.waterfordweather.com

High Low Average
Temperature 75.6°F24.2°C 52.7°F11.5°C 65.4°F18.6°C
Dew Point 59.9°F15.5°C 48.9°F9.4°C 53.9°F12.2°C
Winds 9.2 mph 14.8 kmh Calm Calm 3.0 mph SW4.8 kmh SW
Wind Gusts 13.8 mph22.2 kmh -- 4.0 mph6.4 kmh
Humidity 87% 48% 68%
Pressure 30.27 in1025.1 mb 30.15 in1021.0 mb -
Precipitation 0.00 in0.0 mm - -
Hour Temp Dew Point Humidity Winds Wind Gusts Pressure Precip Precip Rate Daily Precip Total
12:00 AM 56.3°F13.5°C 51.8°F11.0°C 85% Calm Calm -- 30.27 in1025.1 mb - 0.00 in0.0 mm 0.00 in0.0 mm
12:10 AM 56.1°F13.4°C 51.7°F10.9°C 85% Calm Calm -- 30.26 in1024.7 mb - 0.00 in0.0 mm 0.00 in0.0 mm
12:20 AM 55.9°F13.3°C 51.5°F10.8°C 85% Calm Calm -- 30.26 in1024.7 mb - 0.00 in0.0 mm 0.00 in0.0 mm
12:30 AM 55.8°F13.2°C 51.7°F10.9°C 86% Calm Calm -- 30.26 in1024.7 mb - 0.00 in0.0 mm 0.00 in0.0 mm
12:40 AM 56.3°F13.5°C 52.2°F11.2°C 86% Calm Calm -- 30.26 in1024.7 mb - 0.00 in0.0 mm 0.00 in0.0 mm
12:50 AM 56.4°F13.6°C 52.3°F11.3°C 86% Calm Calm -- 30.26 in1024.7 mb - 0.00 in0.0 mm 0.00 in0.0 mm
01:00 AM 55.5°F13.1°C 51.1°F10.6°C 85% Calm Calm -- 30.26 in1024.7 mb - 0.00 in0.0 mm 0.00 in0.0 mm
01:10 AM 55.3°F12.9°C 51.2°F10.7°C 86% Calm Calm -- 30.25 in1024.4 mb - 0.00 in0.0 mm 0.00 in0.0 mm
01:20 AM 55.3°F12.9°C 51.2°F10.7°C 86% Calm Calm -- 30.26 in1024.7 mb - 0.00 in0.0 mm 0.00 in0.0 mm
01:30 AM 54.9°F12.7°C 50.8°F10.4°C 86% Calm Calm -- 30.26 in1024.7 mb - 0.00 in0.0 mm 0.00 in0.0 mm
01:40 AM 54.7°F12.6°C 50.6°F10.3°C 86% Calm Calm -- 30.25 in1024.4 mb - 0.00 in0.0 mm 0.00 in0.0 mm
01:50 AM 54.9°F12.7°C 50.8°F10.4°C 86% Calm Calm -- 30.25 in1024.4 mb - 0.00 in0.0 mm 0.00 in0.0 mm
02:00 AM 55.3°F12.9°C 51.5°F10.8°C 87% Calm Calm -- 30.25 in1024.4 mb - 0.00 in0.0 mm 0.00 in0.0 mm
02:10 AM 55.5°F13.1°C 51.7°F10.9°C 87% Calm Calm -- 30.25 in1024.4 mb - 0.00 in0.0 mm 0.00 in0.0 mm
02:20 AM 55.6°F13.1°C 51.8°F11.0°C 87% Calm Calm -- 30.25 in1024.4 mb - 0.00 in0.0 mm 0.00 in0.0 mm
02:30 AM 55.6°F13.1°C 51.8°F11.0°C 87% Calm Calm 1.2 mph1.9 kmh 30.25 in1024.4 mb - 0.00 in0.0 mm 0.00 in0.0 mm
02:40 AM 55.4°F13.0°C 51.6°F10.9°C 87% Calm Calm -- 30.25 in1024.4 mb - 0.00 in0.0 mm 0.00 in0.0 mm
02:50 AM 55.2°F12.9°C 51.4°F10.8°C 87% Calm Calm -- 30.25 in1024.4 mb - 0.00 in0.0 mm 0.00 in0.0 mm
03:00 AM 55.2°F12.9°C 51.4°F10.8°C 87% Calm Calm -- 30.24 in1024.0 mb - 0.00 in0.0 mm 0.00 in0.0 mm
03:10 AM 55.2°F12.9°C 51.4°F10.8°C 87% Calm Calm -- 30.24 in1024.0 mb - 0.00 in0.0 mm 0.00 in0.0 mm
03:20 AM 54.9°F12.7°C 51.1°F10.6°C 87% Calm Calm -- 30.24 in1024.0 mb - 0.00 in0.0 mm 0.00 in0.0 mm
03:30 AM 54.3°F12.4°C 50.5°F10.3°C 87% Calm Calm -- 30.24 in1024.0 mb - 0.00 in0.0 mm 0.00 in0.0 mm
03:40 AM 53.9°F12.2°C 50.1°F10.1°C 87% Calm Calm -- 30.23 in1023.7 mb - 0.00 in0.0 mm 0.00 in0.0 mm
03:50 AM 53.4°F11.9°C 49.6°F9.8°C 87% Calm Calm -- 30.24 in1024.0 mb - 0.00 in0.0 mm 0.00 in0.0 mm
04:00 AM 52.9°F11.6°C 49.1°F9.5°C 87% Calm Calm -- 30.24 in1024.0 mb - 0.00 in0.0 mm 0.00 in0.0 mm
04:10 AM 52.7°F11.5°C 48.9°F9.4°C 87% Calm Calm -- 30.24 in1024.0 mb - 0.00 in0.0 mm 0.00 in0.0 mm
04:20 AM 52.8°F11.6°C 49.0°F9.4°C 87% Calm Calm -- 30.24 in1024.0 mb - 0.00 in0.0 mm 0.00 in0.0 mm
04:30 AM 53.0°F11.7°C 49.3°F9.6°C 87% Calm Calm -- 30.24 in1024.0 mb - 0.00 in0.0 mm 0.00 in0.0 mm
04:40 AM 53.3°F11.8°C 49.5°F9.7°C 87% Calm Calm -- 30.24 in1024.0 mb - 0.00 in0.0 mm 0.00 in0.0 mm
04:50 AM 53.1°F11.7°C 49.3°F9.6°C 87% Calm Calm -- 30.24 in1024.0 mb - 0.00 in0.0 mm 0.00 in0.0 mm
05:00 AM 53.3°F11.8°C 49.5°F9.7°C 87% Calm Calm -- 30.24 in1024.0 mb - 0.00 in0.0 mm 0.00 in0.0 mm
05:10 AM 53.6°F12.0°C 49.8°F9.9°C 87% Calm Calm -- 30.24 in1024.0 mb - 0.00 in0.0 mm 0.00 in0.0 mm
05:20 AM 54.6°F12.6°C 50.8°F10.4°C 87% Calm Calm -- 30.24 in1024.0 mb - 0.00 in0.0 mm 0.00 in0.0 mm
05:30 AM 56.3°F13.5°C 52.4°F11.3°C 87% Calm Calm -- 30.24 in1024.0 mb - 0.00 in0.0 mm 0.00 in0.0 mm
05:40 AM 56.5°F13.6°C 52.4°F11.3°C 86% Calm Calm -- 30.24 in1024.0 mb - 0.00 in0.0 mm 0.00 in0.0 mm
05:50 AM 57.8°F14.3°C 53.7°F12.1°C 86% Calm Calm -- 30.24 in1024.0 mb - 0.00 in0.0 mm 0.00 in0.0 mm
06:00 AM 58.2°F14.6°C 53.7°F12.1°C 85% Calm Calm -- 30.25 in1024.4 mb - 0.00 in0.0 mm 0.00 in0.0 mm
06:10 AM 58.4°F14.7°C 53.9°F12.2°C 85% 1.2 mph WNW1.9 kmh WNW 4.6 mph7.4 kmh 30.25 in1024.4 mb - 0.00 in0.0 mm 0.00 in0.0 mm
06:20 AM 58.4°F14.7°C 53.9°F12.2°C 85% 2.3 mph NW3.7 kmh NW 5.8 mph9.3 kmh 30.25 in1024.4 mb - 0.00 in0.0 mm 0.00 in0.0 mm
06:30 AM 58.7°F14.8°C 54.2°F12.3°C 85% Calm Calm 4.6 mph7.4 kmh 30.24 in1024.0 mb - 0.00 in0.0 mm 0.00 in0.0 mm
06:40 AM 59.1°F15.1°C 54.6°F12.6°C 85% 3.5 mph NW5.6 kmh NW 5.8 mph9.3 kmh 30.24 in1024.0 mb - 0.00 in0.0 mm 0.00 in0.0 mm
06:50 AM 59.6°F15.3°C 54.7°F12.6°C 84% 1.2 mph NW1.9 kmh NW 2.3 mph3.7 kmh 30.24 in1024.0 mb - 0.00 in0.0 mm 0.00 in0.0 mm
07:00 AM 59.9°F15.5°C 55.1°F12.8°C 84% 1.2 mph NW1.9 kmh NW 2.3 mph3.7 kmh 30.24 in1024.0 mb - 0.00 in0.0 mm 0.00 in0.0 mm
07:10 AM 60.6°F15.9°C 55.7°F13.2°C 84% Calm Calm 1.2 mph1.9 kmh 30.24 in1024.0 mb - 0.00 in0.0 mm 0.00 in0.0 mm
07:20 AM 61.2°F16.2°C 56.0°F13.3°C 83% Calm Calm -- 30.24 in1024.0 mb - 0.00 in0.0 mm 0.00 in0.0 mm
07:30 AM 62.8°F17.1°C 56.9°F13.8°C 81% Calm Calm -- 30.24 in1024.0 mb - 0.00 in0.0 mm 0.00 in0.0 mm
07:40 AM 64.7°F18.2°C 58.0°F14.4°C 79% Calm Calm -- 30.24 in1024.0 mb - 0.00 in0.0 mm 0.00 in0.0 mm
07:50 AM 65.5°F18.6°C 58.5°F14.7°C 78% Calm Calm -- 30.24 in1024.0 mb - 0.00 in0.0 mm 0.00 in0.0 mm
08:00 AM 66.3°F19.1°C 59.6°F15.3°C 79% Calm Calm -- 30.24 in1024.0 mb - 0.00 in0.0 mm 0.00 in0.0 mm
08:10 AM 67.1°F19.5°C 58.9°F14.9°C 75% Calm Calm -- 30.24 in1024.0 mb - 0.00 in0.0 mm 0.00 in0.0 mm
08:20 AM 67.9°F19.9°C 59.7°F15.4°C 75% 1.2 mph S1.9 kmh S 4.6 mph7.4 kmh 30.23 in1023.7 mb - 0.00 in0.0 mm 0.00 in0.0 mm
08:30 AM 67.7°F19.8°C 59.5°F15.3°C 75% Calm Calm -- 30.23 in1023.7 mb - 0.00 in0.0 mm 0.00 in0.0 mm
08:40 AM 67.6°F19.8°C 59.3°F15.2°C 75% Calm Calm 1.2 mph1.9 kmh 30.23 in1023.7 mb - 0.00 in0.0 mm 0.00 in0.0 mm
08:50 AM 68.9°F20.5°C 59.9°F15.5°C 73% 3.5 mph SE5.6 kmh SE 5.8 mph9.3 kmh 30.23 in1023.7 mb - 0.00 in0.0 mm 0.00 in0.0 mm
09:00 AM 68.8°F20.4°C 57.8°F14.3°C 68% 2.3 mph SW3.7 kmh SW 4.6 mph7.4 kmh 30.23 in1023.7 mb - 0.00 in0.0 mm 0.00 in0.0 mm
09:10 AM 70.0°F21.1°C 57.7°F14.3°C 65% 3.5 mph SSW5.6 kmh SSW 6.9 mph11.1 kmh 30.23 in1023.7 mb - 0.00 in0.0 mm 0.00 in0.0 mm
09:20 AM 70.8°F21.6°C 56.7°F13.7°C 61% 4.6 mph WSW7.4 kmh WSW 6.9 mph11.1 kmh 30.23 in1023.7 mb - 0.00 in0.0 mm 0.00 in0.0 mm
09:30 AM 71.8°F22.1°C 56.2°F13.4°C 58% 3.5 mph SSW5.6 kmh SSW 5.8 mph9.3 kmh 30.23 in1023.7 mb - 0.00 in0.0 mm 0.00 in0.0 mm
09:40 AM 72.1°F22.3°C 54.0°F12.2°C 53% 4.6 mph SW7.4 kmh SW 6.9 mph11.1 kmh 30.23 in1023.7 mb - 0.00 in0.0 mm 0.00 in0.0 mm
09:50 AM 72.1°F22.3°C 53.5°F11.9°C 52% 4.6 mph N7.4 kmh N 6.9 mph11.1 kmh 30.22 in1023.4 mb - 0.00 in0.0 mm 0.00 in0.0 mm
10:00 AM 72.2°F22.3°C 53.1°F11.7°C 51% 4.6 mph SW7.4 kmh SW 5.8 mph9.3 kmh 30.22 in1023.4 mb - 0.00 in0.0 mm 0.00 in0.0 mm
10:10 AM 72.8°F22.7°C 52.5°F11.4°C 49% 5.8 mph WSW9.3 kmh WSW 11.5 mph18.5 kmh 30.22 in1023.4 mb - 0.00 in0.0 mm 0.00 in0.0 mm
10:20 AM 72.8°F22.7°C 52.0°F11.1°C 48% 6.9 mph SW11.1 kmh SW 9.2 mph14.8 kmh 30.22 in1023.4 mb - 0.00 in0.0 mm 0.00 in0.0 mm
10:30 AM 73.0°F22.8°C 52.1°F11.2°C 48% 4.6 mph E7.4 kmh E 6.9 mph11.1 kmh 30.22 in1023.4 mb - 0.00 in0.0 mm 0.00 in0.0 mm
10:40 AM 73.4°F23.0°C 54.2°F12.3°C 51% 4.6 mph W7.4 kmh W 6.9 mph11.1 kmh 30.22 in1023.4 mb - 0.00 in0.0 mm 0.00 in0.0 mm
10:50 AM 73.9°F23.3°C 55.2°F12.9°C 52% 4.6 mph WSW7.4 kmh WSW 6.9 mph11.1 kmh 30.22 in1023.4 mb - 0.00 in0.0 mm 0.00 in0.0 mm
11:00 AM 74.5°F23.6°C 56.2°F13.4°C 53% 5.8 mph SW9.3 kmh SW 8.1 mph13.0 kmh 30.22 in1023.4 mb - 0.00 in0.0 mm 0.00 in0.0 mm
11:10 AM 74.6°F23.7°C 56.9°F13.8°C 54% 4.6 mph WNW7.4 kmh WNW 8.1 mph13.0 kmh 30.22 in1023.4 mb - 0.00 in0.0 mm 0.00 in0.0 mm
11:20 AM 74.8°F23.8°C 57.1°F13.9°C 54% 5.8 mph WSW9.3 kmh WSW 8.1 mph13.0 kmh 30.22 in1023.4 mb - 0.00 in0.0 mm 0.00 in0.0 mm
11:30 AM 75.0°F23.9°C 57.2°F14.0°C 54% 4.6 mph SW7.4 kmh SW 6.9 mph11.1 kmh 30.22 in1023.4 mb - 0.00 in0.0 mm 0.00 in0.0 mm
11:40 AM 75.5°F24.2°C 57.7°F14.3°C 54% 3.5 mph SE5.6 kmh SE 5.8 mph9.3 kmh 30.22 in1023.4 mb - 0.00 in0.0 mm 0.00 in0.0 mm
11:50 AM 75.6°F24.2°C 57.7°F14.3°C 54% 5.8 mph WSW9.3 kmh WSW 8.1 mph13.0 kmh 30.21 in1023.0 mb - 0.00 in0.0 mm 0.00 in0.0 mm
12:00 PM 74.1°F23.4°C 57.9°F14.4°C 57% 8.1 mph S13.0 kmh S 11.5 mph18.5 kmh 30.21 in1023.0 mb - 0.00 in0.0 mm 0.00 in0.0 mm
12:10 PM 73.4°F23.0°C 57.2°F14.0°C 57% 6.9 mph SW11.1 kmh SW 11.5 mph18.5 kmh 30.21 in1023.0 mb - 0.00 in0.0 mm 0.00 in0.0 mm
12:20 PM 73.8°F23.2°C 56.6°F13.7°C 55% 9.2 mph S14.8 kmh S 13.8 mph22.2 kmh 30.21 in1023.0 mb - 0.00 in0.0 mm 0.00 in0.0 mm
12:30 PM 73.3°F22.9°C 55.6°F13.1°C 54% 8.1 mph SW13.0 kmh SW 13.8 mph22.2 kmh 30.21 in1023.0 mb - 0.00 in0.0 mm 0.00 in0.0 mm
12:40 PM 73.8°F23.2°C 55.6°F13.1°C 53% 6.9 mph S11.1 kmh S 9.2 mph14.8 kmh 30.21 in1023.0 mb - 0.00 in0.0 mm 0.00 in0.0 mm
12:50 PM 73.1°F22.8°C 55.4°F13.0°C 54% 6.9 mph SSW11.1 kmh SSW 11.5 mph18.5 kmh 30.21 in1023.0 mb - 0.00 in0.0 mm 0.00 in0.0 mm
01:00 PM 74.0°F23.3°C 56.3°F13.5°C 54% 5.8 mph WSW9.3 kmh WSW 8.1 mph13.0 kmh 30.21 in1023.0 mb - 0.00 in0.0 mm 0.00 in0.0 mm
01:10 PM 74.4°F23.6°C 56.2°F13.4°C 53% 3.5 mph SSW5.6 kmh SSW 5.8 mph9.3 kmh 30.20 in1022.7 mb - 0.00 in0.0 mm 0.00 in0.0 mm
01:20 PM 74.8°F23.8°C 56.0°F13.3°C 52% 5.8 mph WSW9.3 kmh WSW 9.2 mph14.8 kmh 30.20 in1022.7 mb - 0.00 in0.0 mm 0.00 in0.0 mm
01:30 PM 75.3°F24.1°C 56.5°F13.6°C 52% 4.6 mph SW7.4 kmh SW 8.1 mph13.0 kmh 30.20 in1022.7 mb - 0.00 in0.0 mm 0.00 in0.0 mm
01:40 PM 75.5°F24.2°C 57.2°F14.0°C 53% 5.8 mph SW9.3 kmh SW 8.1 mph13.0 kmh 30.20 in1022.7 mb - 0.00 in0.0 mm 0.00 in0.0 mm
01:50 PM 75.5°F24.2°C 57.1°F13.9°C 53% 6.9 mph SSW11.1 kmh SSW 11.5 mph18.5 kmh 30.20 in1022.7 mb - 0.00 in0.0 mm 0.00 in0.0 mm
02:00 PM 75.1°F23.9°C 56.8°F13.8°C 53% 5.8 mph S9.3 kmh S 9.2 mph14.8 kmh 30.20 in1022.7 mb - 0.00 in0.0 mm 0.00 in0.0 mm
02:10 PM 73.7°F23.2°C 55.5°F13.1°C 53% 9.2 mph S14.8 kmh S 12.7 mph20.4 kmh 30.19 in1022.4 mb - 0.00 in0.0 mm 0.00 in0.0 mm
02:20 PM 72.2°F22.3°C 57.6°F14.2°C 60% 9.2 mph S14.8 kmh S 12.7 mph20.4 kmh 30.19 in1022.4 mb - 0.00 in0.0 mm 0.00 in0.0 mm
02:30 PM 71.6°F22.0°C 57.0°F13.9°C 60% 6.9 mph S11.1 kmh S 11.5 mph18.5 kmh 30.19 in1022.4 mb - 0.00 in0.0 mm 0.00 in0.0 mm
02:40 PM 71.7°F22.1°C 57.5°F14.2°C 61% 6.9 mph S11.1 kmh S 11.5 mph18.5 kmh 30.19 in1022.4 mb - 0.00 in0.0 mm 0.00 in0.0 mm
02:50 PM 71.5°F21.9°C 56.9°F13.8°C 60% 6.9 mph S11.1 kmh S 9.2 mph14.8 kmh 30.19 in1022.4 mb - 0.00 in0.0 mm 0.00 in0.0 mm
03:00 PM 71.1°F21.7°C 56.1°F13.4°C 59% 9.2 mph SSW14.8 kmh SSW 12.7 mph20.4 kmh 30.19 in1022.4 mb - 0.00 in0.0 mm 0.00 in0.0 mm
03:10 PM 72.3°F22.4°C 55.2°F12.9°C 55% 9.2 mph SW14.8 kmh SW 13.8 mph22.2 kmh 30.18 in1022.0 mb - 0.00 in0.0 mm 0.00 in0.0 mm
03:20 PM 72.8°F22.7°C 54.6°F12.6°C 53% 9.2 mph SW14.8 kmh SW 13.8 mph22.2 kmh 30.18 in1022.0 mb - 0.00 in0.0 mm 0.00 in0.0 mm
03:30 PM 73.2°F22.9°C 54.6°F12.6°C 52% 8.1 mph SW13.0 kmh SW 12.7 mph20.4 kmh 30.18 in1022.0 mb - 0.00 in0.0 mm 0.00 in0.0 mm
03:40 PM 73.3°F22.9°C 55.1°F12.8°C 53% 5.8 mph W9.3 kmh W 9.2 mph14.8 kmh 30.18 in1022.0 mb - 0.00 in0.0 mm 0.00 in0.0 mm
03:50 PM 73.7°F23.2°C 54.4°F12.4°C 51% 6.9 mph SW11.1 kmh SW 11.5 mph18.5 kmh 30.18 in1022.0 mb - 0.00 in0.0 mm 0.00 in0.0 mm
04:00 PM 73.2°F22.9°C 55.0°F12.8°C 53% 4.6 mph WSW7.4 kmh WSW 6.9 mph11.1 kmh 30.18 in1022.0 mb - 0.00 in0.0 mm 0.00 in0.0 mm
04:10 PM 73.5°F23.1°C 54.8°F12.7°C 52% 8.1 mph SSW13.0 kmh SSW 11.5 mph18.5 kmh 30.18 in1022.0 mb - 0.00 in0.0 mm 0.00 in0.0 mm
04:20 PM 73.5°F23.1°C 55.3°F12.9°C 53% 4.6 mph WSW7.4 kmh WSW 6.9 mph11.1 kmh 30.17 in1021.7 mb - 0.00 in0.0 mm 0.00 in0.0 mm
04:30 PM 73.4°F23.0°C 54.7°F12.6°C 52% 5.8 mph S9.3 kmh S 9.2 mph14.8 kmh 30.17 in1021.7 mb - 0.00 in0.0 mm 0.00 in0.0 mm
04:40 PM 74.2°F23.4°C 54.9°F12.7°C 51% 4.6 mph S7.4 kmh S 8.1 mph13.0 kmh 30.17 in1021.7 mb - 0.00 in0.0 mm 0.00 in0.0 mm
04:50 PM 73.4°F23.0°C 54.7°F12.6°C 52% 6.9 mph SSW11.1 kmh SSW 9.2 mph14.8 kmh 30.17 in1021.7 mb - 0.00 in0.0 mm 0.00 in0.0 mm
05:00 PM 73.8°F23.2°C 55.0°F12.8°C 52% 6.9 mph S11.1 kmh S 11.5 mph18.5 kmh 30.17 in1021.7 mb - 0.00 in0.0 mm 0.00 in0.0 mm
05:10 PM 72.4°F22.4°C 54.3°F12.4°C 53% 6.9 mph SSW11.1 kmh SSW 8.1 mph13.0 kmh 30.17 in1021.7 mb - 0.00 in0.0 mm 0.00 in0.0 mm
05:20 PM 72.5°F22.5°C 54.4°F12.4°C 53% 5.8 mph S9.3 kmh S 8.1 mph13.0 kmh 30.17 in1021.7 mb - 0.00 in0.0 mm 0.00 in0.0 mm
05:30 PM 71.8°F22.1°C 55.7°F13.2°C 57% 6.9 mph SSW11.1 kmh SSW 8.1 mph13.0 kmh 30.16 in1021.3 mb - 0.00 in0.0 mm 0.00 in0.0 mm
05:40 PM 70.7°F21.5°C 55.2°F12.9°C 58% 6.9 mph S11.1 kmh S 8.1 mph13.0 kmh 30.16 in1021.3 mb - 0.00 in0.0 mm 0.00 in0.0 mm
05:50 PM 70.6°F21.4°C 55.1°F12.8°C 58% 6.9 mph SSW11.1 kmh SSW 11.5 mph18.5 kmh 30.16 in1021.3 mb - 0.00 in0.0 mm 0.00 in0.0 mm
06:00 PM 70.8°F21.6°C 53.3°F11.8°C 54% 5.8 mph SW9.3 kmh SW 8.1 mph13.0 kmh 30.16 in1021.3 mb - 0.00 in0.0 mm 0.00 in0.0 mm
06:10 PM 72.0°F22.2°C 53.9°F12.2°C 53% 4.6 mph SW7.4 kmh SW 6.9 mph11.1 kmh 30.16 in1021.3 mb - 0.00 in0.0 mm 0.00 in0.0 mm
06:20 PM 71.1°F21.7°C 52.6°F11.4°C 52% 4.6 mph SW7.4 kmh SW 5.8 mph9.3 kmh 30.16 in1021.3 mb - 0.00 in0.0 mm 0.00 in0.0 mm
06:30 PM 70.5°F21.4°C 52.0°F11.1°C 52% 5.8 mph S9.3 kmh S 6.9 mph11.1 kmh 30.16 in1021.3 mb - 0.00 in0.0 mm 0.00 in0.0 mm
06:40 PM 70.8°F21.6°C 52.8°F11.6°C 53% 5.8 mph S9.3 kmh S 8.1 mph13.0 kmh 30.16 in1021.3 mb - 0.00 in0.0 mm 0.00 in0.0 mm
06:50 PM 70.4°F21.3°C 52.4°F11.3°C 53% 5.8 mph SSW9.3 kmh SSW 8.1 mph13.0 kmh 30.16 in1021.3 mb - 0.00 in0.0 mm 0.00 in0.0 mm
07:00 PM 70.0°F21.1°C 53.1°F11.7°C 55% 2.3 mph SW3.7 kmh SW 6.9 mph11.1 kmh 30.16 in1021.3 mb - 0.00 in0.0 mm 0.00 in0.0 mm
07:10 PM 70.6°F21.4°C 53.6°F12.0°C 55% 3.5 mph SW5.6 kmh SW 5.8 mph9.3 kmh 30.16 in1021.3 mb - 0.00 in0.0 mm 0.00 in0.0 mm
07:20 PM 71.9°F22.2°C 53.9°F12.2°C 53% 4.6 mph SW7.4 kmh SW 5.8 mph9.3 kmh 30.16 in1021.3 mb - 0.00 in0.0 mm 0.00 in0.0 mm
07:30 PM 71.0°F21.7°C 52.5°F11.4°C 52% 3.5 mph SSW5.6 kmh SSW 5.8 mph9.3 kmh 30.16 in1021.3 mb - 0.00 in0.0 mm 0.00 in0.0 mm
07:40 PM 70.6°F21.4°C 52.7°F11.5°C 53% 1.2 mph W1.9 kmh W 2.3 mph3.7 kmh 30.16 in1021.3 mb - 0.00 in0.0 mm 0.00 in0.0 mm
07:50 PM 70.8°F21.6°C 53.3°F11.8°C 54% 1.2 mph SSW1.9 kmh SSW 2.3 mph3.7 kmh 30.16 in1021.3 mb - 0.00 in0.0 mm 0.00 in0.0 mm
08:00 PM 70.3°F21.3°C 53.4°F11.9°C 55% 2.3 mph SW3.7 kmh SW 4.6 mph7.4 kmh 30.16 in1021.3 mb - 0.00 in0.0 mm 0.00 in0.0 mm
08:10 PM 69.7°F20.9°C 54.2°F12.3°C 58% 2.3 mph SSW3.7 kmh SSW 4.6 mph7.4 kmh 30.16 in1021.3 mb - 0.00 in0.0 mm 0.00 in0.0 mm
08:20 PM 68.4°F20.2°C 53.5°F11.9°C 59% 2.3 mph SSW3.7 kmh SSW 2.3 mph3.7 kmh 30.16 in1021.3 mb - 0.00 in0.0 mm 0.00 in0.0 mm
08:30 PM 67.5°F19.7°C 53.1°F11.7°C 60% 1.2 mph SW1.9 kmh SW 2.3 mph3.7 kmh 30.16 in1021.3 mb - 0.00 in0.0 mm 0.00 in0.0 mm
08:40 PM 66.6°F19.2°C 52.7°F11.5°C 61% Calm Calm 2.3 mph3.7 kmh 30.16 in1021.3 mb - 0.00 in0.0 mm 0.00 in0.0 mm
08:50 PM 65.2°F18.4°C 52.3°F11.3°C 63% 1.2 mph SW1.9 kmh SW 2.3 mph3.7 kmh 30.16 in1021.3 mb - 0.00 in0.0 mm 0.00 in0.0 mm
09:00 PM 64.3°F17.9°C 52.3°F11.3°C 65% Calm Calm 2.3 mph3.7 kmh 30.16 in1021.3 mb - 0.00 in0.0 mm 0.00 in0.0 mm
09:10 PM 63.7°F17.6°C 52.1°F11.2°C 66% Calm Calm 2.3 mph3.7 kmh 30.16 in1021.3 mb - 0.00 in0.0 mm 0.00 in0.0 mm
09:20 PM 63.1°F17.3°C 52.0°F11.1°C 67% Calm Calm 2.3 mph3.7 kmh 30.16 in1021.3 mb - 0.00 in0.0 mm 0.00 in0.0 mm
09:30 PM 62.6°F17.0°C 52.3°F11.3°C 69% Calm Calm -- 30.16 in1021.3 mb - 0.00 in0.0 mm 0.00 in0.0 mm
09:40 PM 62.0°F16.7°C 52.1°F11.2°C 70% Calm Calm -- 30.16 in1021.3 mb - 0.00 in0.0 mm 0.00 in0.0 mm
09:50 PM 61.3°F16.3°C 52.2°F11.2°C 72% Calm Calm -- 30.16 in1021.3 mb - 0.00 in0.0 mm 0.00 in0.0 mm
10:00 PM 61.1°F16.2°C 52.4°F11.3°C 73% Calm Calm -- 30.16 in1021.3 mb - 0.00 in0.0 mm 0.00 in0.0 mm
10:10 PM 60.9°F16.1°C 52.6°F11.4°C 74% Calm Calm -- 30.16 in1021.3 mb - 0.00 in0.0 mm 0.00 in0.0 mm
10:20 PM 60.6°F15.9°C 52.7°F11.5°C 75% Calm Calm -- 30.16 in1021.3 mb - 0.00 in0.0 mm 0.00 in0.0 mm
10:30 PM 60.4°F15.8°C 52.4°F11.3°C 75% Calm Calm -- 30.16 in1021.3 mb - 0.00 in0.0 mm 0.00 in0.0 mm
10:40 PM 60.3°F15.7°C 52.7°F11.5°C 76% Calm Calm -- 30.16 in1021.3 mb - 0.00 in0.0 mm 0.00 in0.0 mm
10:50 PM 59.9°F15.5°C 52.7°F11.5°C 77% Calm Calm -- 30.16 in1021.3 mb - 0.00 in0.0 mm 0.00 in0.0 mm
11:00 PM 59.7°F15.4°C 52.8°F11.6°C 78% Calm Calm -- 30.15 in1021.0 mb - 0.00 in0.0 mm 0.00 in0.0 mm
11:10 PM 59.3°F15.2°C 52.4°F11.3°C 78% Calm Calm -- 30.15 in1021.0 mb - 0.00 in0.0 mm 0.00 in0.0 mm
11:20 PM 58.9°F14.9°C 52.4°F11.3°C 79% Calm Calm -- 30.15 in1021.0 mb - 0.00 in0.0 mm 0.00 in0.0 mm
11:30 PM 58.8°F14.9°C 52.3°F11.3°C 79% Calm Calm -- 30.15 in1021.0 mb - 0.00 in0.0 mm 0.00 in0.0 mm
11:40 PM 58.7°F14.8°C 52.5°F11.4°C 80% Calm Calm -- 30.15 in1021.0 mb - 0.00 in0.0 mm 0.00 in0.0 mm
11:50 PM 58.3°F14.6°C 52.1°F11.2°C 80% Calm Calm -- 30.15 in1021.0 mb - 0.00 in0.0 mm 0.00 in0.0 mm